Date,TemperatureHighF,TemperatureAvgF,TemperatureLowF,DewpointHighF,DewpointAvgF,DewpointLowF,HumidityHigh,HumidityAvg,HumidityLow,PressureMaxIn,PressureMinIn,WindSpeedMaxMPH,WindSpeedAvgMPH,GustSpeedMaxMPH,PrecipitationSumIn
2013-1-1,47.7,45.0,42.0,45.4,37.2,15.7,96,78,32,30.12,29.95,16,1,16,0.60
2013-1-2,44.9,40.7,36.7,42.7,37.0,32.8,95,87,68,30.15,29.90,16,1,16,0.04
2013-1-3,38.1,34.8,29.2,37.2,32.1,23.4,97,90,71,30.31,30.10,11,1,0,0.02
2013-1-4,38.0,30.9,26.1,23.7,18.5,13.2,80,61,36,30.41,30.28,20,3,20,0.00
2013-1-5,45.2,34.6,25.1,30.7,20.5,15.2,79,58,31,30.44,30.26,21,1,21,0.00
2013-1-6,47.9,38.6,33.1,38.2,32.0,27.9,93,78,59,30.26,30.08,21,2,23,0.00
2013-1-7,46.4,35.9,26.8,29.0,25.5,22.4,85,67,41,30.45,30.20,20,1,20,0.00
2013-1-8,49.3,38.8,30.0,44.0,33.2,26.2,96,81,63,30.49,30.39,5,0,0,0.00
2013-1-9,55.5,51.4,45.2,52.2,49.2,43.9,97,93,87,30.47,30.40,6,0,0,0.00
2013-1-10,59.5,53.7,48.0,52.9,49.7,44.1,94,86,75,30.49,30.33,14,0,14,0.00
2013-1-11,55.4,49.9,44.8,54.6,49.0,43.3,97,97,90,30.33,30.13,7,0,0,0.39
2013-1-12,70.5,59.9,53.9,61.1,56.9,52.5,97,90,66,30.17,30.06,11,0,0,0.01
2013-1-13,65.2,58.2,53.0,57.0,55.0,51.6,96,89,71,30.09,30.01,12,1,13,0.07
2013-1-14,58.8,56.5,47.5,57.9,55.5,45.1,97,97,90,30.10,30.01,16,1,17,1.05
2013-1-15,52.8,48.2,43.3,52.0,47.4,42.3,98,97,96,30.12,30.02,5,0,0,1.02
2013-1-16,53.9,50.2,46.4,53.0,49.6,45.8,98,97,97,30.04,29.94,6,0,0,0.53
2013-1-17,51.0,43.5,30.8,50.2,42.6,29.0,98,97,93,30.17,29.76,15,1,15,2.30
2013-1-18,42.8,33.0,25.9,31.1,26.2,21.3,93,77,54,30.55,30.16,19,2,19,0.01
2013-1-19,48.9,37.1,26.5,30.3,25.5,21.5,82,64,38,30.53,30.21,8,1,0,0.00
2013-1-20,51.7,44.2,35.9,34.0,26.1,14.5,65,50,30,30.21,30.08,16,3,16,0.00
2013-1-21,48.8,38.7,28.0,28.1,21.1,12.7,65,50,36,30.10,29.98,17,2,21,0.00
2013-1-22,27.9,22.7,17.1,12.6,2.8,-4.3,61,43,25,30.32,30.01,26,4,26,0.00
2013-1-23,40.7,29.4,21.1,22.6,14.5,1.1,70,54,41,30.41,30.13,10,1,0,0.00
2013-1-24,39.5,30.7,19.1,29.9,14.7,0.8,73,52,28,30.48,30.03,22,3,23,0.00
2013-1-25,39.2,24.7,16.0,37.0,17.7,3.7,96,76,52,30.51,30.16,13,1,14,0.01
2013-1-26,43.7,36.3,31.6,35.3,22.4,8.4,91,60,25,30.36,30.15,18,2,20,0.00
2013-1-27,37.2,31.8,26.3,30.0,25.2,15.3,91,77,51,30.55,30.36,5,0,0,0.03
2013-1-28,60.2,44.6,32.0,49.9,39.8,28.8,94,84,62,30.50,30.26,13,1,14,0.00
2013-1-29,66.1,55.8,44.5,55.4,49.0,40.3,95,78,58,30.27,30.01,12,1,13,0.05
2013-1-30,59.3,55.3,42.4,58.2,54.1,39.8,97,96,90,30.01,29.42,20,3,20,2.04
2013-1-31,42.4,31.6,26.0,40.2,23.1,17.4,94,71,49,30.05,29.48,24,2,24,0.01